Time;durP1;ratioP1;P1;durP2;ratioP2;P2;SDS_P1;SDS_P2;PMS_P1;PMS_P2;Temp;Humidity;BMP_temperature;BMP_pressure;BME280_temperature;BME280_humidity;BME280_pressure;Samples;Min_cycle;Max_cycle;Signal;HPM_P1;HPM_P2
2022/12/30 00:00:23;;;;;;;7.85;1.80;;;;;;;6.60;85.94;98029.97;4193492;28;20048;-77
2022/12/30 00:02:24;;;;;;;5.13;1.40;;;;;;;6.54;86.16;98027.88;4199053;28;20070;-77
2022/12/30 00:04:24;;;;;;;8.60;1.67;;;;;;;6.50;86.50;98025.06;4192848;28;20032;-77
2022/12/30 00:06:26;;;;;;;6.13;1.50;;;;;;;6.53;86.24;98029.03;4190568;28;20057;-77
2022/12/30 00:10:45;;;;;;;2.88;1.00;;;;;;;6.40;86.91;98036.66;4190647;28;20066;-77
2022/12/30 00:34:21;;;;;;;3.45;1.30;;;;;;;6.24;88.21;98028.47;4170064;28;20057;-77
2022/12/30 00:36:24;;;;;;;4.05;1.42;;;;;;;6.22;88.20;98033.53;4170875;28;20044;-77
2022/12/30 00:38:24;;;;;;;6.68;1.30;;;;;;;6.21;88.45;98040.19;4171245;28;20124;-77
2022/12/30 00:40:25;;;;;;;5.80;1.27;;;;;;;6.19;88.16;98039.72;4190083;28;20462;-77
2022/12/30 00:44:44;;;;;;;4.20;1.33;;;;;;;6.23;88.49;98048.84;4190712;28;20098;-77
2022/12/30 00:46:45;;;;;;;8.73;2.13;;;;;;;6.26;87.80;98044.59;4205468;28;20533;-77
2022/12/30 00:58:01;;;;;;;5.32;1.88;;;;;;;6.50;86.25;98068.25;4201937;28;20058;-77
2022/12/30 01:00:02;;;;;;;3.38;1.30;;;;;;;6.49;86.36;98075.69;4206331;28;20024;-76
2022/12/30 01:02:03;;;;;;;2.17;1.30;;;;;;;6.46;86.49;98082.72;4195732;28;20024;-76
2022/12/30 01:04:03;;;;;;;5.80;1.35;;;;;;;6.42;86.26;98092.03;4188618;28;20364;-77
2022/12/30 01:06:05;;;;;;;4.32;1.67;;;;;;;6.40;86.84;98097.91;4189920;28;20460;-77
2022/12/30 01:08:06;;;;;;;4.22;1.70;;;;;;;6.46;86.42;98115.69;4190419;28;20025;-77
2022/12/30 01:10:10;;;;;;;5.97;1.70;;;;;;;6.59;85.68;98107.31;4190222;28;20361;-77
2022/12/30 01:12:11;;;;;;;10.05;1.55;;;;;;;6.64;85.81;98105.09;4197750;28;20035;-76
2022/12/30 01:14:11;;;;;;;7.22;1.95;;;;;;;6.65;85.60;98111.38;4204366;28;20028;-77
2022/12/30 01:16:14;;;;;;;4.35;1.27;;;;;;;6.60;86.11;98126.19;4205543;28;20023;-77
2022/12/30 01:18:15;;;;;;;7.15;1.55;;;;;;;6.57;86.12;98126.91;4206492;28;20128;-77
2022/12/30 01:20:16;;;;;;;4.53;1.60;;;;;;;6.55;86.20;98150.44;4206028;28;20032;-77
2022/12/30 01:22:16;;;;;;;6.50;1.65;;;;;;;6.51;86.95;98138.53;4197763;28;20225;-77
2022/12/30 01:24:17;;;;;;;7.03;1.58;;;;;;;6.49;86.43;98144.41;4193421;28;20370;-77
2022/12/30 01:26:17;;;;;;;3.85;1.30;;;;;;;6.46;87.13;98143.19;4194851;28;20028;-77
2022/12/30 01:28:17;;;;;;;10.70;1.60;;;;;;;6.41;87.24;98145.41;4206715;28;20464;-77
2022/12/30 01:30:18;;;;;;;3.42;1.60;;;;;;;6.43;87.23;98146.63;4204666;28;20561;-77
2022/12/30 01:32:20;;;;;;;7.43;3.00;;;;;;;6.42;87.43;98144.25;4201801;28;20364;-77
2022/12/30 01:34:21;;;;;;;7.45;1.67;;;;;;;6.50;86.54;98150.69;4199037;28;20032;-77
2022/12/30 01:36:21;;;;;;;4.97;1.55;;;;;;;6.51;86.56;98152.28;4205019;28;20043;-77
2022/12/30 01:38:21;;;;;;;6.78;1.40;;;;;;;6.52;86.41;98154.66;4190608;28;20048;-77
2022/12/30 01:40:22;;;;;;;3.42;1.20;;;;;;;6.55;86.63;98150.44;4191902;28;20062;-77
2022/12/30 01:42:27;;;;;;;5.75;1.70;;;;;;;6.52;86.42;98153.88;4206188;28;20096;-77
2022/12/30 01:45:01;;;;;;;6.13;1.92;;;;;;;6.44;86.36;98156.47;4205570;28;20505;-77
2022/12/30 01:47:02;;;;;;;4.63;1.90;;;;;;;6.33;87.11;98155.44;4206990;28;20032;-77
2022/12/30 01:49:02;;;;;;;3.28;1.20;;;;;;;6.28;86.68;98152.94;4201496;28;20135;-77
2022/12/30 01:51:11;;;;;;;5.28;1.55;;;;;;;6.21;87.42;98169.28;4196900;28;20047;-77
2022/12/30 01:53:15;;;;;;;4.60;1.50;;;;;;;6.16;87.78;98164.84;4203763;28;20032;-77
2022/12/30 01:55:25;;;;;;;6.57;1.55;;;;;;;6.12;86.95;98177.72;4193990;28;20040;-77
2022/12/30 01:57:26;;;;;;;6.45;1.60;;;;;;;6.14;86.91;98178.16;4189857;28;20327;-77
2022/12/30 01:59:27;;;;;;;5.95;1.40;;;;;;;6.10;87.11;98191.00;4189639;28;20477;-77
2022/12/30 02:01:27;;;;;;;6.25;1.52;;;;;;;6.15;85.81;98177.00;4194623;28;20487;-77
2022/12/30 02:03:33;;;;;;;6.43;1.63;;;;;;;6.17;85.03;98176.63;4203355;28;20047;-77
2022/12/30 02:05:38;;;;;;;6.15;1.50;;;;;;;6.24;83.92;98170.53;4189842;28;20041;-77
2022/12/30 02:07:55;;;;;;;4.63;1.27;;;;;;;6.24;83.96;98178.75;4189790;28;20058;-77
2022/12/30 02:09:56;;;;;;;6.72;1.38;;;;;;;6.23;84.00;98172.47;4189847;28;20127;-77
2022/12/30 02:11:57;;;;;;;5.83;1.60;;;;;;;6.20;84.80;98181.41;4193794;28;20033;-77
2022/12/30 02:13:58;;;;;;;6.32;1.40;;;;;;;6.15;84.32;98181.69;4197137;28;20388;-77
2022/12/30 02:16:13;;;;;;;4.28;1.40;;;;;;;6.16;84.76;98188.78;4200363;28;20531;-77
2022/12/30 02:18:27;;;;;;;3.97;1.73;;;;;;;6.15;84.32;98190.75;4206159;28;20211;-77
2022/12/30 02:21:07;;;;;;;4.13;1.52;;;;;;;6.18;85.77;98190.00;4204273;28;20161;-77
2022/12/30 02:23:39;;;;;;;4.15;1.92;;;;;;;6.14;84.89;98202.88;4196683;28;20051;-77
2022/12/30 02:26:17;;;;;;;6.93;1.80;;;;;;;6.11;84.84;98202.78;4188390;28;20507;-77
2022/12/30 02:28:52;;;;;;;3.38;1.40;;;;;;;6.06;86.34;98211.31;4199409;28;20740;-77
2022/12/30 02:31:21;;;;;;;4.50;1.80;;;;;;;6.00;85.86;98224.50;4205816;28;20048;-77
2022/12/30 02:33:41;;;;;;;6.18;2.55;;;;;;;5.97;86.03;98225.22;4199309;28;20048;-77
2022/12/30 02:35:56;;;;;;;8.35;3.88;;;;;;;5.90;86.13;98225.81;4206842;28;20532;-77
2022/12/30 02:38:19;;;;;;;7.30;2.78;;;;;;;5.79;87.12;98229.38;4209766;28;20131;-77
2022/12/30 02:40:25;;;;;;;;;;;;;;;5.73;88.04;98233.56;4208964;28;20494;-77
2022/12/30 02:45:30;;;;;;;3.85;1.75;;;;;;;5.63;88.52;98226.66;4208134;28;20051;-77
2022/12/30 02:47:35;;;;;;;7.07;1.58;;;;;;;5.78;87.63;98234.09;4184365;28;20406;-77
2022/12/30 02:49:37;;;;;;;7.53;2.10;;;;;;;5.83;87.68;98242.06;4209831;28;20123;-76
2022/12/30 02:54:00;;;;;;;5.13;1.65;;;;;;;5.79;87.32;98232.13;4207752;28;20059;-77
2022/12/30 02:56:00;;;;;;;4.47;1.60;;;;;;;5.90;86.59;98246.97;4207933;28;20492;-77
2022/12/30 02:58:01;;;;;;;3.03;1.33;;;;;;;5.81;87.48;98238.88;4206983;28;20055;-76
2022/12/30 03:05:19;;;;;;;5.82;2.53;;;;;;;5.74;87.92;98233.22;4199974;28;20131;-77
2022/12/30 03:07:36;;;;;;;8.52;1.67;;;;;;;5.73;88.14;98234.34;4192565;28;20231;-77
2022/12/30 03:12:33;;;;;;;4.50;1.60;;;;;;;5.73;88.04;98239.06;4206375;28;20075;-77
2022/12/30 03:14:49;;;;;;;5.25;1.65;;;;;;;5.74;87.77;98251.63;4203758;28;20143;-77
2022/12/30 03:17:08;;;;;;;4.32;1.80;;;;;;;5.74;87.04;98243.41;4202246;28;20052;-77
2022/12/30 03:19:17;;;;;;;6.13;1.63;;;;;;;5.72;87.41;98246.50;4192088;28;20056;-76
2022/12/30 03:21:20;;;;;;;7.93;2.05;;;;;;;5.78;87.26;98256.03;4198375;28;20110;-76
2022/12/30 03:28:10;;;;;;;2.72;1.10;;;;;;;5.85;85.66;98264.47;4208641;28;20075;-76
2022/12/30 03:30:12;;;;;;;4.75;1.33;;;;;;;5.83;85.46;98275.03;4208944;28;20035;-76
2022/12/30 03:32:15;;;;;;;3.70;1.30;;;;;;;5.83;86.20;98258.53;4201242;28;20035;-76
2022/12/30 03:34:16;;;;;;;6.25;1.27;;;;;;;5.82;86.91;98267.94;4200453;28;20498;-77
2022/12/30 03:36:22;;;;;;;3.17;1.20;;;;;;;5.79;86.12;98254.94;4191804;28;20035;-76
2022/12/30 03:38:30;;;;;;;3.75;1.20;;;;;;;5.82;85.75;98250.66;4190833;28;20043;-77
2022/12/30 03:40:40;;;;;;;4.18;1.23;;;;;;;5.85;85.57;98256.25;4201088;28;20563;-76
2022/12/30 03:42:41;;;;;;;3.80;1.55;;;;;;;5.86;85.18;98268.03;4189595;28;20048;-77
2022/12/30 03:44:43;;;;;;;4.95;1.40;;;;;;;5.84;85.36;98259.34;4195614;28;20033;-77
2022/12/30 03:46:45;;;;;;;4.82;1.85;;;;;;;5.82;85.18;98261.66;4190191;28;20044;-76
2022/12/30 03:48:46;;;;;;;3.95;1.73;;;;;;;5.84;85.91;98270.31;4207401;28;20446;-76
2022/12/30 03:50:46;;;;;;;5.28;1.35;;;;;;;5.86;85.00;98263.31;4207273;28;20072;-77
2022/12/30 03:52:47;;;;;;;6.32;1.50;;;;;;;5.90;86.55;98253.28;4202341;28;20044;-76
2022/12/30 03:54:48;;;;;;;4.35;1.45;;;;;;;5.90;85.12;98253.28;4197061;28;20056;-76
2022/12/30 03:56:49;;;;;;;5.63;1.33;;;;;;;5.87;86.27;98248.44;4190218;28;20123;-76
2022/12/30 03:58:49;;;;;;;5.00;1.17;;;;;;;5.87;85.46;98253.13;4191667;28;20117;-77
2022/12/30 04:00:50;;;;;;;4.68;1.67;;;;;;;5.97;85.40;98252.66;4193303;28;20067;-76
2022/12/30 04:02:51;;;;;;;5.25;1.38;;;;;;;5.93;85.57;98254.50;4202543;28;20055;-76
2022/12/30 04:04:52;;;;;;;4.82;1.15;;;;;;;5.96;85.18;98251.06;4198603;28;20045;-76
2022/12/30 04:06:52;;;;;;;2.28;1.20;;;;;;;5.94;85.51;98253.34;4191350;28;20251;-76
2022/12/30 04:08:52;;;;;;;5.30;1.50;;;;;;;5.93;85.07;98249.03;4191396;28;20072;-77
2022/12/30 04:10:53;;;;;;;3.97;1.52;;;;;;;5.90;84.98;98252.44;4193058;28;20378;-76
2022/12/30 04:12:53;;;;;;;3.05;1.20;;;;;;;5.90;84.58;98245.03;4196157;28;20508;-76
2022/12/30 04:14:53;;;;;;;5.95;1.50;;;;;;;5.84;85.01;98248.38;4198957;28;20596;-76
2022/12/30 04:16:54;;;;;;;5.43;1.80;;;;;;;5.76;86.29;98247.38;4194195;28;20385;-76
2022/12/30 04:18:54;;;;;;;4.68;1.85;;;;;;;5.69;86.38;98241.69;4208393;28;20535;-76
2022/12/30 04:20:55;;;;;;;6.13;1.73;;;;;;;5.61;87.14;98239.91;4207332;28;20051;-77
2022/12/30 04:22:57;;;;;;;8.32;2.10;;;;;;;5.57;87.58;98252.75;4200586;28;20552;-77
2022/12/30 04:24:57;;;;;;;3.63;1.75;;;;;;;5.51;87.12;98252.19;4193054;28;20422;-77
2022/12/30 04:26:58;;;;;;;3.80;1.10;;;;;;;5.52;86.96;98264.75;4191406;28;20140;-76
2022/12/30 04:28:58;;;;;;;4.15;1.15;;;;;;;5.49;87.85;98262.72;4196963;28;20055;-77
2022/12/30 04:30:58;;;;;;;4.28;1.13;;;;;;;5.52;86.86;98269.44;4205654;28;20545;-76
2022/12/30 04:32:59;;;;;;;6.40;1.60;;;;;;;5.58;87.94;98279.03;4197055;28;20540;-77
2022/12/30 04:35:00;;;;;;;3.13;1.25;;;;;;;5.57;87.93;98277.44;4205627;28;20062;-77
2022/12/30 04:37:00;;;;;;;5.10;1.48;;;;;;;5.60;86.84;98287.72;4207494;28;20302;-77
2022/12/30 04:39:01;;;;;;;6.93;1.52;;;;;;;5.62;86.41;98286.19;4207458;28;20376;-76
2022/12/30 04:41:01;;;;;;;7.18;1.45;;;;;;;5.60;87.10;98277.53;4198996;28;20136;-77
2022/12/30 04:43:01;;;;;;;4.05;1.30;;;;;;;5.59;87.17;98292.41;4191748;28;20057;-77
2022/12/30 04:45:02;;;;;;;8.00;1.42;;;;;;;5.59;87.28;98289.66;4198034;28;20108;-77
2022/12/30 04:47:02;;;;;;;6.65;2.28;;;;;;;5.56;87.16;98292.31;4195370;28;20045;-76
2022/12/30 04:49:02;;;;;;;4.72;1.50;;;;;;;5.56;87.20;98303.28;4190654;28;20044;-76
2022/12/30 04:51:03;;;;;;;4.68;1.60;;;;;;;5.53;87.13;98295.75;4190983;28;20369;-76
2022/12/30 04:53:03;;;;;;;3.22;1.30;;;;;;;5.55;87.72;98291.53;4201520;28;20048;-77
2022/12/30 04:55:04;;;;;;;6.50;2.70;;;;;;;5.55;87.23;98294.25;4200018;28;20040;-76
2022/12/30 04:57:05;;;;;;;5.28;1.60;;;;;;;5.60;87.59;98298.69;4191167;28;20094;-76
2022/12/30 04:59:05;;;;;;;2.70;1.20;;;;;;;5.62;87.14;98299.13;4189088;28;20528;-76
2022/12/30 05:01:05;;;;;;;5.03;2.17;;;;;;;5.63;87.17;98303.50;4192048;28;20039;-76
2022/12/30 05:03:06;;;;;;;10.00;2.10;;;;;;;5.61;87.16;98312.06;4206008;28;20043;-76
2022/12/30 05:05:06;;;;;;;6.13;1.55;;;;;;;5.61;88.35;98311.25;4203079;28;20041;-76
2022/12/30 05:07:07;;;;;;;5.07;1.50;;;;;;;5.60;87.90;98318.69;4202103;28;20041;-76
2022/12/30 05:09:07;;;;;;;5.72;1.70;;;;;;;5.61;88.16;98319.50;4190116;28;20106;-76
2022/12/30 05:11:08;;;;;;;6.78;2.22;;;;;;;5.64;87.66;98324.31;4195290;28;20062;-77
2022/12/30 05:13:08;;;;;;;5.47;1.40;;;;;;;5.62;87.99;98327.38;4205225;28;20047;-77
2022/12/30 05:15:09;;;;;;;3.00;1.17;;;;;;;5.62;88.01;98335.59;4190689;28;20105;-76
2022/12/30 05:17:09;;;;;;;3.42;1.38;;;;;;;5.61;88.10;98333.22;4210166;28;20372;-76
2022/12/30 05:19:10;;;;;;;6.18;1.65;;;;;;;5.58;88.25;98348.44;4204068;28;20039;-76
2022/12/30 05:21:10;;;;;;;8.23;1.30;;;;;;;5.56;88.66;98350.75;4210871;28;20118;-76
2022/12/30 05:26:13;;;;;;;8.20;1.63;;;;;;;5.56;88.22;98342.50;4196639;28;20094;-76
2022/12/30 05:27:50;;;;;;;3.63;1.35;;;;;;;5.61;88.47;98339.50;4203563;28;20098;-77
2022/12/30 05:29:50;;;;;;;4.43;1.20;;;;;;;5.68;87.78;98343.59;4194454;28;20032;-76
2022/12/30 05:31:50;;;;;;;3.47;1.38;;;;;;;5.63;88.18;98342.72;4200314;28;20075;-77
2022/12/30 05:33:51;;;;;;;6.63;1.60;;;;;;;5.59;88.27;98346.50;4205814;28;20074;-76
2022/12/30 05:35:51;;;;;;;6.28;1.60;;;;;;;5.65;87.58;98353.34;4207236;28;20369;-76
2022/12/30 05:37:52;;;;;;;5.47;1.52;;;;;;;5.64;87.98;98358.03;4206775;28;20044;-76
2022/12/30 05:39:52;;;;;;;4.32;1.75;;;;;;;5.62;88.23;98354.81;4205286;28;20044;-76
2022/12/30 05:41:52;;;;;;;3.38;1.17;;;;;;;5.64;88.14;98358.03;4203358;28;20055;-76
2022/12/30 05:43:52;;;;;;;4.88;1.70;;;;;;;5.64;88.75;98366.28;4191595;28;20044;-76
2022/12/30 05:45:53;;;;;;;8.38;3.38;;;;;;;5.62;89.53;98354.03;4199410;28;20036;-77
2022/12/30 05:47:53;;;;;;;6.13;1.77;;;;;;;5.62;88.54;98370.50;4209868;28;20044;-77
2022/12/30 05:49:54;;;;;;;4.38;1.48;;;;;;;5.58;88.75;98370.41;4193109;28;20554;-76
2022/12/30 05:51:54;;;;;;;4.65;1.73;;;;;;;5.56;89.63;98367.22;4198249;28;20304;-76
2022/12/30 05:53:54;;;;;;;4.82;1.38;;;;;;;5.53;89.31;98367.88;4189468;28;20434;-76
2022/12/30 05:55:55;;;;;;;5.07;1.30;;;;;;;5.49;89.15;98366.19;4200189;28;20044;-76
2022/12/30 05:57:56;;;;;;;13.60;2.22;;;;;;;5.45;89.03;98359.78;4203121;28;20114;-76
2022/12/30 05:59:56;;;;;;;2.38;1.58;;;;;;;5.41;89.24;98364.38;4190129;28;20049;-76
2022/12/30 06:01:56;;;;;;;2.92;1.30;;;;;;;5.38;89.23;98365.88;4200620;28;20495;-76
2022/12/30 06:03:57;;;;;;;9.05;1.85;;;;;;;5.33;88.95;98361.44;4203456;28;20502;-76
2022/12/30 06:05:59;;;;;;;7.90;1.35;;;;;;;5.29;90.02;98365.19;4100949;27;20569;-76
2022/12/30 06:07:59;;;;;;;6.60;1.27;;;;;;;5.23;90.38;98361.13;4199485;28;20114;-76
2022/12/30 06:10:00;;;;;;;7.05;1.83;;;;;;;5.21;90.14;98360.63;4194950;28;20056;-76
2022/12/30 06:12:00;;;;;;;6.30;1.50;;;;;;;5.12;89.59;98354.47;4203644;28;20051;-76
2022/12/30 06:14:00;;;;;;;8.43;2.20;;;;;;;5.11;90.28;98353.69;4204957;28;20241;-76
2022/12/30 06:16:01;;;;;;;4.97;1.55;;;;;;;5.05;89.58;98364.13;4205093;28;20101;-76
2022/12/30 06:18:01;;;;;;;9.25;1.52;;;;;;;5.00;89.45;98366.28;4208534;28;20130;-76
2022/12/30 06:20:02;;;;;;;4.90;1.40;;;;;;;4.94;90.36;98362.97;4209672;28;20051;-76
2022/12/30 06:22:02;;;;;;;3.92;1.17;;;;;;;4.90;90.52;98364.81;4207399;28;20031;-76
2022/12/30 06:24:03;;;;;;;5.10;1.48;;;;;;;4.86;90.48;98372.09;4196670;28;20120;-76
2022/12/30 06:26:03;;;;;;;4.05;1.30;;;;;;;4.81;90.24;98375.09;4213717;27;20040;-76
2022/12/30 06:28:04;;;;;;;4.63;1.75;;;;;;;4.75;91.12;98373.69;4193544;28;20078;-76
2022/12/30 06:30:05;;;;;;;3.80;1.30;;;;;;;4.71;90.78;98387.28;4203420;28;20047;-76
2022/12/30 06:32:05;;;;;;;4.55;1.30;;;;;;;4.69;90.79;98384.09;4205221;28;20063;-76
2022/12/30 06:34:06;;;;;;;4.40;1.48;;;;;;;4.63;90.41;98382.69;4198950;28;20486;-76
2022/12/30 06:36:07;;;;;;;6.43;1.85;;;;;;;4.60;91.01;98388.88;4209831;28;20289;-76
2022/12/30 06:38:07;;;;;;;3.55;1.38;;;;;;;4.53;91.86;98379.63;4204991;28;20194;-76
2022/12/30 06:40:09;;;;;;;6.32;1.60;;;;;;;4.53;91.04;98379.63;4209379;28;20024;-76
2022/12/30 06:42:09;;;;;;;7.22;1.63;;;;;;;4.48;91.39;98380.66;4190910;28;20082;-76
2022/12/30 06:44:09;;;;;;;4.80;1.50;;;;;;;4.48;91.84;98389.66;4191064;28;20020;-75
2022/12/30 06:46:10;;;;;;;4.05;2.00;;;;;;;4.49;91.86;98395.94;4191172;28;20115;-76
2022/12/30 06:48:11;;;;;;;7.90;1.77;;;;;;;4.47;92.01;98387.28;4191643;28;20108;-76
2022/12/30 06:50:11;;;;;;;8.00;1.60;;;;;;;4.44;91.80;98394.22;4189845;28;20029;-76
2022/12/30 06:52:12;;;;;;;4.57;1.38;;;;;;;4.39;91.84;98391.72;4191154;28;20059;-76
2022/12/30 06:54:12;;;;;;;5.97;2.25;;;;;;;4.36;92.85;98389.63;4191794;28;20025;-76
2022/12/30 06:56:12;;;;;;;3.03;1.50;;;;;;;4.34;93.95;98408.34;4192495;28;20028;-76
2022/12/30 06:58:13;;;;;;;4.22;1.33;;;;;;;4.41;95.07;98407.81;4192606;28;20104;-76
2022/12/30 07:00:14;;;;;;;5.13;1.67;;;;;;;4.43;94.73;98411.00;4192503;28;20032;-76
2022/12/30 07:02:14;;;;;;;9.60;1.75;;;;;;;4.46;94.59;98405.63;4192677;28;20376;-76
2022/12/30 07:04:15;;;;;;;3.33;1.15;;;;;;;4.49;94.90;98413.19;4190044;28;20032;-76
2022/12/30 07:06:15;;;;;;;6.13;2.38;;;;;;;4.51;95.45;98418.31;4208141;28;20464;-76
2022/12/30 07:08:16;;;;;;;4.00;1.25;;;;;;;4.49;95.22;98421.41;4206115;28;20022;-76
2022/12/30 07:10:17;;;;;;;10.07;2.22;;;;;;;4.46;94.92;98415.78;4213923;28;20085;-76
2022/12/30 07:12:17;;;;;;;5.32;1.50;;;;;;;4.40;94.41;98417.97;4195643;28;20028;-76
2022/12/30 07:14:18;;;;;;;4.85;1.27;;;;;;;4.35;93.89;98412.69;4191282;28;20089;-76
2022/12/30 07:16:18;;;;;;;8.60;1.10;;;;;;;4.27;95.17;98408.09;4190843;28;20039;-76
2022/12/30 07:18:18;;;;;;;2.67;1.30;;;;;;;4.20;95.53;98410.56;4191818;28;20035;-76
2022/12/30 07:20:19;;;;;;;4.97;1.70;;;;;;;4.10;94.62;98416.47;4192412;28;20111;-76
2022/12/30 07:22:19;;;;;;;4.43;1.40;;;;;;;4.03;95.12;98419.75;4191349;28;20072;-76
2022/12/30 07:24:20;;;;;;;16.63;2.78;;;;;;;3.97;95.78;98429.31;4189786;28;20462;-76
2022/12/30 07:26:21;;;;;;;6.05;1.88;;;;;;;3.92;95.92;98433.06;4192057;28;20047;-75
2022/12/30 07:28:21;;;;;;;8.38;1.70;;;;;;;3.88;95.89;98439.53;4192093;28;20308;-76
2022/12/30 07:30:21;;;;;;;9.52;2.13;;;;;;;3.84;96.06;98442.16;4192088;28;20303;-76
2022/12/30 07:32:22;;;;;;;9.80;1.67;;;;;;;3.81;96.15;98436.56;4191901;28;20036;-76
2022/12/30 07:34:22;;;;;;;3.83;1.33;;;;;;;3.77;97.12;98438.34;4199818;28;20040;-76
2022/12/30 07:36:22;;;;;;;4.75;1.88;;;;;;;3.69;96.97;98440.00;4208703;28;20052;-76
2022/12/30 07:38:23;;;;;;;3.88;1.30;;;;;;;3.63;96.30;98442.13;4206981;28;20072;-76
2022/12/30 07:40:23;;;;;;;4.55;1.80;;;;;;;3.62;97.13;98442.47;4208608;28;20036;-75
2022/12/30 07:42:23;;;;;;;11.05;1.90;;;;;;;3.61;96.10;98438.94;4208552;28;20044;-76
2022/12/30 07:44:24;;;;;;;5.65;1.65;;;;;;;3.64;97.28;98434.72;4208105;28;20123;-76
2022/12/30 07:46:24;;;;;;;7.88;1.63;;;;;;;3.67;97.68;98442.28;4208619;28;20074;-76
2022/12/30 07:48:24;;;;;;;5.70;1.60;;;;;;;3.67;97.02;98443.09;4207984;28;20469;-76
2022/12/30 07:50:25;;;;;;;2.33;1.30;;;;;;;3.72;98.14;98436.59;4208664;28;20086;-75
2022/12/30 07:52:26;;;;;;;6.35;1.75;;;;;;;3.79;97.88;98442.34;4208232;28;20409;-75
2022/12/30 07:54:27;;;;;;;3.55;1.73;;;;;;;3.82;97.15;98441.69;4208173;28;20040;-75
2022/12/30 07:56:28;;;;;;;4.95;1.73;;;;;;;3.91;97.54;98442.41;4208305;28;20471;-75
2022/12/30 07:58:28;;;;;;;4.55;1.70;;;;;;;3.97;97.62;98440.25;4208254;28;20431;-76
2022/12/30 08:00:28;;;;;;;6.32;1.48;;;;;;;4.07;97.39;98439.06;4208330;28;20437;-75
2022/12/30 08:02:28;;;;;;;3.38;1.35;;;;;;;4.13;97.65;98437.72;4207077;28;20128;-75
2022/12/30 08:04:29;;;;;;;4.55;1.52;;;;;;;4.18;97.16;98434.78;4206867;28;20040;-75
2022/12/30 08:06:29;;;;;;;4.65;1.63;;;;;;;4.26;97.20;98442.09;4206732;28;20074;-76
2022/12/30 08:08:30;;;;;;;5.25;2.65;;;;;;;4.38;97.17;98441.31;4223562;28;20186;-76
2022/12/30 08:10:30;;;;;;;4.65;1.83;;;;;;;4.43;94.67;98438.38;4204564;28;20101;-76
2022/12/30 08:12:33;;;;;;;4.45;1.83;;;;;;;4.50;96.23;98433.97;4208308;28;20082;-75
2022/12/30 08:14:34;;;;;;;4.45;1.50;;;;;;;4.58;95.39;98431.47;4205182;28;20076;-76
2022/12/30 08:16:34;;;;;;;4.03;1.63;;;;;;;4.68;96.50;98431.03;4198297;28;20071;-75
2022/12/30 08:18:35;;;;;;;4.00;2.00;;;;;;;4.71;95.70;98427.59;4198918;28;20427;-76
2022/12/30 08:20:35;;;;;;;4.22;1.98;;;;;;;4.73;95.73;98428.88;4198742;28;20136;-76
2022/12/30 08:22:36;;;;;;;5.95;1.90;;;;;;;4.79;95.09;98429.44;4197621;28;20043;-76
2022/12/30 08:24:37;;;;;;;5.05;2.30;;;;;;;4.79;95.27;98434.91;4199866;28;20032;-76
2022/12/30 08:26:37;;;;;;;7.45;2.10;;;;;;;4.84;94.92;98431.97;4202734;28;20048;-76
2022/12/30 08:28:38;;;;;;;5.70;2.20;;;;;;;4.85;94.99;98433.56;4200515;28;20036;-76
2022/12/30 08:30:39;;;;;;;6.70;2.10;;;;;;;4.89;94.74;98431.75;4197816;28;20468;-75
2022/12/30 08:32:39;;;;;;;5.75;1.80;;;;;;;4.92;95.24;98436.53;4198996;28;20091;-75
2022/12/30 08:34:40;;;;;;;3.17;1.63;;;;;;;4.93;94.70;98429.09;4196762;28;20040;-76
2022/12/30 08:36:40;;;;;;;7.30;1.70;;;;;;;4.94;94.97;98436.19;4197935;28;20465;-76
2022/12/30 08:38:43;;;;;;;6.95;2.33;;;;;;;4.93;94.31;98429.09;4201877;28;20166;-76
2022/12/30 08:40:44;;;;;;;5.57;2.00;;;;;;;4.93;94.88;98427.16;4197037;28;20538;-76
2022/12/30 08:42:44;;;;;;;3.78;2.20;;;;;;;4.98;95.57;98428.91;4198930;28;20044;-76
2022/12/30 08:44:44;;;;;;;8.80;1.92;;;;;;;5.03;92.93;98423.97;4197332;28;20121;-76
2022/12/30 08:46:45;;;;;;;7.22;1.90;;;;;;;5.15;92.52;98427.88;4210396;28;20081;-76
2022/12/30 08:48:45;;;;;;;5.72;2.10;;;;;;;5.18;92.56;98425.22;4201925;28;20047;-76
2022/12/30 08:50:46;;;;;;;5.68;2.38;;;;;;;5.23;92.23;98410.50;4196741;28;20048;-76
2022/12/30 08:52:46;;;;;;;7.20;2.80;;;;;;;5.26;92.26;98421.56;4197639;28;20123;-76
2022/12/30 08:54:46;;;;;;;7.15;2.97;;;;;;;5.29;91.56;98415.38;4195337;28;20036;-76
2022/12/30 08:56:48;;;;;;;6.00;2.45;;;;;;;5.35;92.71;98422.22;4200464;28;20047;-76
2022/12/30 08:58:49;;;;;;;8.85;5.38;;;;;;;5.43;92.92;98414.22;4202930;28;20044;-76
2022/12/30 09:00:49;;;;;;;13.75;9.38;;;;;;;5.40;91.41;98412.97;4207328;28;20552;-76
2022/12/30 09:02:49;;;;;;;9.40;3.65;;;;;;;5.44;91.22;98418.56;4209107;28;20072;-76
2022/12/30 09:04:50;;;;;;;6.47;2.38;;;;;;;5.47;90.53;98418.69;4206761;28;20040;-76
2022/12/30 09:06:50;;;;;;;4.40;1.85;;;;;;;5.55;89.25;98428.75;4214708;28;20039;-76
2022/12/30 09:08:51;;;;;;;4.13;2.40;;;;;;;5.59;89.27;98424.16;4198702;28;20190;-76
2022/12/30 09:11:06;;;;;;;5.63;2.47;;;;;;;5.63;89.96;98424.25;4207348;28;20391;-76
2022/12/30 09:13:06;;;;;;;3.28;1.92;;;;;;;5.66;89.83;98420.03;4206097;28;20047;-76
2022/12/30 09:15:07;;;;;;;7.78;2.45;;;;;;;5.63;89.47;98422.31;4194897;28;20454;-76
2022/12/30 09:17:08;;;;;;;6.65;2.55;;;;;;;5.62;90.09;98414.41;4209655;28;20498;-76
2022/12/30 09:19:08;;;;;;;4.57;2.72;;;;;;;5.70;89.18;98420.91;4206678;28;20127;-76
2022/12/30 09:21:09;;;;;;;4.88;1.70;;;;;;;5.76;87.89;98414.03;4207186;28;20384;-76
2022/12/30 09:23:10;;;;;;;3.97;2.45;;;;;;;5.80;88.47;98424.00;4205776;28;20093;-76
2022/12/30 09:25:11;;;;;;;8.77;3.15;;;;;;;5.85;88.09;98423.72;4206774;28;20048;-76
2022/12/30 09:27:11;;;;;;;5.25;2.10;;;;;;;5.90;87.33;98419.94;4207019;28;20043;-76
2022/12/30 09:29:14;;;;;;;5.43;1.98;;;;;;;5.91;87.65;98421.56;4206532;28;20476;-76
2022/12/30 09:31:15;;;;;;;11.95;2.47;;;;;;;5.94;87.72;98420.88;4206898;28;20101;-76
2022/12/30 09:33:15;;;;;;;4.18;2.20;;;;;;;5.96;87.95;98415.84;4206272;28;20040;-76
2022/12/30 09:35:16;;;;;;;5.68;2.00;;;;;;;5.95;87.41;98416.97;4207094;28;20333;-76
2022/12/30 09:37:16;;;;;;;5.32;2.10;;;;;;;5.98;87.15;98418.25;4206872;28;20045;-76
2022/12/30 09:39:16;;;;;;;4.88;1.98;;;;;;;5.96;87.77;98413.09;4205363;28;20080;-76
2022/12/30 09:44:08;;;;;;;8.13;1.65;;;;;;;6.06;86.73;98404.34;4205388;28;20566;-76
2022/12/30 09:46:21;;;;;;;4.75;2.05;;;;;;;6.11;87.45;98403.28;4205401;28;20044;-76
2022/12/30 09:48:26;;;;;;;7.40;1.58;;;;;;;6.13;87.28;98407.31;4205489;28;20119;-76
2022/12/30 09:50:40;;;;;;;2.70;1.33;;;;;;;6.10;88.29;98401.69;4206996;28;20036;-75
2022/12/30 09:52:52;;;;;;;5.50;1.88;;;;;;;6.11;87.65;98400.53;4201946;28;20507;-76
2022/12/30 09:55:09;;;;;;;3.75;1.88;;;;;;;6.08;87.00;98401.25;4203809;28;20044;-76
2022/12/30 09:57:30;;;;;;;4.30;1.30;;;;;;;6.09;86.76;98397.34;4198594;28;20043;-76
2022/12/30 09:59:32;;;;;;;2.70;1.20;;;;;;;6.11;88.04;98384.06;4189417;28;20044;-76
2022/12/30 10:02:23;;;;;;;4.07;1.65;;;;;;;6.13;88.11;98374.34;4192837;28;20503;-76
2022/12/30 10:04:31;;;;;;;5.15;1.90;;;;;;;6.13;88.56;98371.59;4165842;28;20509;-76
2022/12/30 10:06:37;;;;;;;5.32;1.65;;;;;;;6.19;87.37;98363.88;4203398;28;20074;-76
2022/12/30 10:08:59;;;;;;;4.50;1.65;;;;;;;6.22;86.75;98367.88;4190884;28;20052;-76
2022/12/30 10:11:02;;;;;;;2.90;1.55;;;;;;;6.29;87.25;98348.81;4190025;28;20134;-76
2022/12/30 10:13:17;;;;;;;3.67;1.20;;;;;;;6.26;87.60;98352.28;4188680;28;20408;-76
2022/12/30 10:15:18;;;;;;;5.60;1.45;;;;;;;6.29;87.19;98349.66;4196460;28;20048;-76
2022/12/30 10:17:44;;;;;;;4.25;1.27;;;;;;;6.33;87.43;98347.78;4202071;28;20426;-76
2022/12/30 10:20:00;;;;;;;5.93;1.50;;;;;;;6.35;87.97;98344.66;4211540;28;20045;-76
2022/12/30 10:22:10;;;;;;;5.82;1.17;;;;;;;6.39;86.84;98335.38;4193667;28;20114;-76
2022/12/30 10:24:36;;;;;;;5.85;1.20;;;;;;;6.45;86.04;98324.91;4188656;28;20048;-76
2022/12/30 10:26:39;;;;;;;6.28;2.20;;;;;;;6.54;85.14;98314.56;4202284;28;20430;-76
2022/12/30 10:28:51;;;;;;;7.20;1.83;;;;;;;6.59;86.04;98303.28;4205690;28;20043;-76
2022/12/30 10:30:51;;;;;;;4.28;1.30;;;;;;;6.60;86.37;98288.38;4206336;28;20044;-76
2022/12/30 10:32:59;;;;;;;8.18;1.75;;;;;;;6.61;86.71;98280.91;4205696;28;20048;-76
2022/12/30 10:35:12;;;;;;;7.15;1.83;;;;;;;6.60;86.29;98282.06;4205124;28;20373;-76
2022/12/30 10:37:28;;;;;;;4.65;1.67;;;;;;;6.56;86.55;98271.00;4205199;28;20040;-76
2022/12/30 10:39:30;;;;;;;3.72;1.88;;;;;;;6.57;86.23;98269.06;4206224;28;20154;-76
2022/12/30 10:42:08;;;;;;;13.32;6.15;;;;;;;6.57;84.98;98263.56;4206507;28;20036;-76
2022/12/30 10:44:37;;;;;;;10.43;3.85;;;;;;;6.61;85.87;98256.19;4205649;28;20051;-76
2022/12/30 10:47:01;;;;;;;6.30;2.42;;;;;;;6.58;86.29;98251.41;4206322;28;20097;-76